Time,TemperatureF,DewpointF,PressureIn,WindDirection,WindDirectionDegrees,WindSpeedMPH,WindSpeedGustMPH,Humidity,HourlyPrecipIn,Conditions,Clouds,dailyrainin,SoftwareType,DateUTC
2013-04-28 00:00:00,42.1,34.4,30.32,SW,225,1.0,1.0,74,0.00,CLR,,0.00,WeatherDisplay:10.37,2013-04-28 04:00:00,
2013-04-28 00:01:00,42.1,34.4,30.32,WSW,248,1.2,1.2,74,0.00,CLR,,0.00,WeatherDisplay:10.37,2013-04-28 04:01:00,
2013-04-28 00:06:00,42.1,34.4,30.32,WSW,248,1.2,1.2,74,0.00,CLR,,0.00,WeatherDisplay:10.37,2013-04-28 04:06:00,
2013-04-28 00:11:00,41.9,34.2,30.32,WSW,248,0.0,0.0,74,0.00,CLR,,0.00,WeatherDisplay:10.37,2013-04-28 04:11:00,
2013-04-28 00:16:00,41.9,34.6,30.32,WSW,248,0.0,0.5,75,0.00,CLR,,0.00,WeatherDisplay:10.37,2013-04-28 04:16:00,
2013-04-28 00:21:00,41.7,34.4,30.32,WSW,248,1.2,1.2,75,0.00,CLR,,0.00,WeatherDisplay:10.37,2013-04-28 04:21:00,
2013-04-28 00:26:00,41.7,34.4,30.32,WSW,248,1.2,1.2,75,0.00,CLR,,0.00,WeatherDisplay:10.37,2013-04-28 04:26:00,
2013-04-28 00:31:00,41.5,34.2,30.32,WSW,248,1.2,1.2,75,0.00,CLR,,0.00,WeatherDisplay:10.37,2013-04-28 04:31:00,
2013-04-28 00:36:00,41.5,34.5,30.32,WSW,248,0.0,0.0,76,0.00,CLR,,0.00,WeatherDisplay:10.37,2013-04-28 04:36:00,
2013-04-28 00:41:00,41.4,34.4,30.32,WSW,248,0.0,0.0,76,0.00,CLR,,0.00,WeatherDisplay:10.37,2013-04-28 04:41:00,
2013-04-28 00:46:00,41.4,34.4,30.32,WSW,248,0.0,0.0,76,0.00,CLR,,0.00,WeatherDisplay:10.37,2013-04-28 04:46:00,
2013-04-28 00:51:00,41.4,34.4,30.32,WSW,248,0.0,0.0,76,0.00,CLR,,0.00,WeatherDisplay:10.37,2013-04-28 04:51:00,
2013-04-28 00:56:00,41.0,34.3,30.32,WSW,248,0.0,0.0,77,0.00,CLR,,0.00,WeatherDisplay:10.37,2013-04-28 04:56:00,
2013-04-28 01:01:00,41.0,34.3,30.32,WSW,248,0.0,0.0,77,0.00,CLR,,0.00,WeatherDisplay:10.37,2013-04-28 05:01:00,
2013-04-28 01:06:00,40.8,34.2,30.32,WSW,248,0.0,0.0,77,0.00,CLR,,0.00,WeatherDisplay:10.37,2013-04-28 05:06:00,
2013-04-28 01:11:00,40.8,34.2,30.32,WSW,248,0.0,0.0,77,0.00,CLR,,0.00,WeatherDisplay:10.37,2013-04-28 05:11:00,
2013-04-28 01:16:00,40.6,34.0,30.32,WSW,248,0.0,0.0,77,0.00,CLR,,0.00,WeatherDisplay:10.37,2013-04-28 05:16:00,
2013-04-28 01:21:00,40.5,33.8,30.32,WSW,248,0.0,0.0,77,0.00,CLR,,0.00,WeatherDisplay:10.37,2013-04-28 05:21:00,
2013-04-28 01:26:00,40.3,33.6,30.31,WSW,248,0.0,0.0,77,0.00,CLR,,0.00,WeatherDisplay:10.37,2013-04-28 05:26:00,
2013-04-28 01:31:00,40.3,33.6,30.31,WSW,248,0.0,0.0,77,0.00,CLR,,0.00,WeatherDisplay:10.37,2013-04-28 05:31:00,
2013-04-28 01:37:00,39.9,33.3,30.31,WSW,248,0.0,0.0,77,0.00,CLR,,0.00,WeatherDisplay:10.37,2013-04-28 05:37:00,
2013-04-28 01:42:00,39.9,33.3,30.31,WSW,248,0.0,0.0,77,0.00,CLR,,0.00,WeatherDisplay:10.37,2013-04-28 05:42:00,
2013-04-28 01:47:00,39.7,33.1,30.31,WSW,248,0.0,0.0,77,0.00,CLR,,0.00,WeatherDisplay:10.37,2013-04-28 05:47:00,
2013-04-28 01:52:00,39.7,33.1,30.31,WSW,248,0.0,0.0,77,0.00,CLR,,0.00,WeatherDisplay:10.37,2013-04-28 05:52:00,
2013-04-28 01:57:00,39.6,33.3,30.31,WSW,248,0.0,0.0,78,0.00,CLR,,0.00,WeatherDisplay:10.37,2013-04-28 05:57:00,
2013-04-28 02:02:00,39.6,33.3,30.31,WSW,248,0.0,0.0,78,0.00,CLR,,0.00,WeatherDisplay:10.37,2013-04-28 06:02:00,
2013-04-28 02:07:00,39.4,33.1,30.30,WSW,248,0.0,0.0,78,0.00,CLR,,0.00,WeatherDisplay:10.37,2013-04-28 06:07:00,
2013-04-28 02:12:00,39.4,33.1,30.30,WSW,248,0.0,0.0,78,0.00,CLR,,0.00,WeatherDisplay:10.37,2013-04-28 06:12:00,
2013-04-28 02:17:00,39.2,32.9,30.30,WSW,248,0.0,0.0,78,0.00,CLR,,0.00,WeatherDisplay:10.37,2013-04-28 06:17:00,
2013-04-28 02:22:00,39.2,32.9,30.30,WSW,248,0.0,0.0,78,0.00,CLR,,0.00,WeatherDisplay:10.37,2013-04-28 06:22:00,
2013-04-28 02:27:00,39.0,32.7,30.29,WSW,248,0.0,0.0,78,0.00,CLR,,0.00,WeatherDisplay:10.37,2013-04-28 06:27:00,
2013-04-28 02:32:00,38.8,32.9,30.29,WSW,248,0.0,0.0,79,0.00,CLR,,0.00,WeatherDisplay:10.37,2013-04-28 06:32:00,
2013-04-28 02:37:00,38.8,32.9,30.29,WSW,248,0.0,0.0,79,0.00,CLR,,0.00,WeatherDisplay:10.37,2013-04-28 06:37:00,
2013-04-28 02:42:00,38.7,32.7,30.29,WSW,248,0.0,0.0,79,0.00,CLR,,0.00,WeatherDisplay:10.37,2013-04-28 06:42:00,
2013-04-28 02:47:00,38.5,32.5,30.29,WSW,248,0.0,0.0,79,0.00,CLR,,0.00,WeatherDisplay:10.37,2013-04-28 06:47:00,
2013-04-28 02:52:00,38.5,32.5,30.29,WSW,248,0.0,0.0,79,0.00,CLR,,0.00,WeatherDisplay:10.37,2013-04-28 06:52:00,
2013-04-28 02:57:00,38.5,32.5,30.29,WSW,248,0.0,0.0,79,0.00,CLR,,0.00,WeatherDisplay:10.37,2013-04-28 06:57:00,
2013-04-28 03:02:00,38.5,32.5,30.29,WSW,248,0.0,0.0,79,0.00,CLR,,0.00,WeatherDisplay:10.37,2013-04-28 07:02:00,
2013-04-28 03:07:00,38.5,32.5,30.29,WSW,248,0.0,0.0,79,0.00,CLR,,0.00,WeatherDisplay:10.37,2013-04-28 07:07:00,
2013-04-28 03:12:00,38.3,32.4,30.29,WSW,248,0.0,0.0,79,0.00,CLR,,0.00,WeatherDisplay:10.37,2013-04-28 07:12:00,
2013-04-28 03:17:00,38.5,32.5,30.29,WSW,248,0.0,0.0,79,0.00,CLR,,0.00,WeatherDisplay:10.37,2013-04-28 07:17:00,
2013-04-28 03:22:00,38.3,32.4,30.29,WSW,248,0.0,0.0,79,0.00,CLR,,0.00,WeatherDisplay:10.37,2013-04-28 07:22:00,
2013-04-28 03:27:00,38.3,32.4,30.29,WSW,248,0.0,0.0,79,0.00,CLR,,0.00,WeatherDisplay:10.37,2013-04-28 07:27:00,
2013-04-28 03:32:00,38.1,32.2,30.29,WSW,248,0.0,0.0,79,0.00,CLR,,0.00,WeatherDisplay:10.37,2013-04-28 07:32:00,
2013-04-28 03:37:00,37.9,32.0,30.29,WSW,248,0.0,0.0,79,0.00,CLR,,0.00,WeatherDisplay:10.37,2013-04-28 07:37:00,
2013-04-28 03:42:00,37.8,32.1,30.29,WSW,248,0.0,0.0,80,0.00,CLR,,0.00,WeatherDisplay:10.37,2013-04-28 07:42:00,
2013-04-28 03:47:00,37.8,32.1,30.29,WSW,248,0.0,0.0,80,0.00,CLR,,0.00,WeatherDisplay:10.37,2013-04-28 07:47:00,
2013-04-28 03:52:00,37.6,32.0,30.29,WSW,248,0.0,0.0,80,0.00,CLR,,0.00,WeatherDisplay:10.37,2013-04-28 07:52:00,
2013-04-28 03:57:00,37.6,32.0,30.29,WSW,248,0.0,0.0,80,0.00,CLR,,0.00,WeatherDisplay:10.37,2013-04-28 07:57:00,
2013-04-28 04:02:00,37.6,32.0,30.29,WSW,248,0.0,0.0,80,0.00,CLR,,0.00,WeatherDisplay:10.37,2013-04-28 08:02:00,
2013-04-28 04:07:00,37.4,31.8,30.29,WSW,248,0.0,0.0,80,0.00,CLR,,0.00,WeatherDisplay:10.37,2013-04-28 08:07:00,
2013-04-28 04:12:00,37.2,31.6,30.29,WSW,248,0.0,0.0,80,0.00,CLR,,0.00,WeatherDisplay:10.37,2013-04-28 08:12:00,
2013-04-28 04:17:00,37.2,31.6,30.29,WSW,248,0.0,0.0,80,0.00,CLR,,0.00,WeatherDisplay:10.37,2013-04-28 08:17:00,
2013-04-28 04:22:00,37.0,31.4,30.29,WSW,248,0.0,0.0,80,0.00,CLR,,0.00,WeatherDisplay:10.37,2013-04-28 08:22:00,
2013-04-28 04:27:00,36.9,31.3,30.29,WSW,248,0.0,0.0,80,0.00,CLR,,0.00,WeatherDisplay:10.37,2013-04-28 08:27:00,
2013-04-28 04:32:00,36.7,31.1,30.29,WSW,248,0.0,0.0,80,0.00,CLR,,0.00,WeatherDisplay:10.37,2013-04-28 08:32:00,
2013-04-28 04:37:00,36.7,31.1,30.29,WSW,248,0.0,0.0,80,0.00,CLR,,0.00,WeatherDisplay:10.37,2013-04-28 08:37:00,
2013-04-28 04:42:00,36.7,31.1,30.29,WSW,248,0.0,0.0,80,0.00,CLR,,0.00,WeatherDisplay:10.37,2013-04-28 08:42:00,
2013-04-28 04:47:00,36.7,31.1,30.29,WSW,248,0.0,0.0,80,0.00,CLR,,0.00,WeatherDisplay:10.37,2013-04-28 08:47:00,
2013-04-28 04:52:00,36.5,30.9,30.29,WSW,248,0.0,0.0,80,0.00,CLR,,0.00,WeatherDisplay:10.37,2013-04-28 08:52:00,
2013-04-28 04:57:00,36.5,30.9,30.29,WSW,248,0.0,0.0,80,0.00,CLR,,0.00,WeatherDisplay:10.37,2013-04-28 08:57:00,
2013-04-28 05:02:00,36.3,30.7,30.30,WSW,248,0.0,0.0,80,0.00,CLR,,0.00,WeatherDisplay:10.37,2013-04-28 09:02:00,
2013-04-28 05:07:00,36.3,30.7,30.29,WSW,248,0.0,0.0,80,0.00,CLR,,0.00,WeatherDisplay:10.37,2013-04-28 09:07:00,
2013-04-28 05:12:00,36.3,30.7,30.29,WSW,248,0.0,0.0,80,0.00,CLR,,0.00,WeatherDisplay:10.37,2013-04-28 09:12:00,
2013-04-28 05:17:00,36.3,30.7,30.29,WSW,248,0.0,0.0,80,0.00,CLR,,0.00,WeatherDisplay:10.37,2013-04-28 09:17:00,
2013-04-28 05:22:00,36.3,30.7,30.29,WSW,248,0.0,0.0,80,0.00,CLR,,0.00,WeatherDisplay:10.37,2013-04-28 09:22:00,
2013-04-28 05:27:00,36.1,30.6,30.29,WSW,248,0.0,0.0,80,0.00,CLR,,0.00,WeatherDisplay:10.37,2013-04-28 09:27:00,
2013-04-28 05:32:00,36.0,30.4,30.29,WSW,248,0.0,0.0,80,0.00,CLR,,0.00,WeatherDisplay:10.37,2013-04-28 09:32:00,
2013-04-28 05:37:00,36.0,30.7,30.29,WSW,248,0.0,0.0,81,0.00,CLR,,0.00,WeatherDisplay:10.37,2013-04-28 09:37:00,
2013-04-28 05:42:00,36.0,30.7,30.29,WSW,248,0.0,0.0,81,0.00,CLR,,0.00,WeatherDisplay:10.37,2013-04-28 09:42:00,
2013-04-28 05:47:00,35.8,30.5,30.29,WSW,248,0.0,0.0,81,0.00,CLR,,0.00,WeatherDisplay:10.37,2013-04-28 09:47:00,
2013-04-28 05:52:00,35.8,30.5,30.29,WSW,248,0.0,0.0,81,0.00,CLR,,0.00,WeatherDisplay:10.37,2013-04-28 09:52:00,
2013-04-28 05:58:00,35.8,30.5,30.29,WSW,248,0.0,0.0,81,0.00,CLR,,0.00,WeatherDisplay:10.37,2013-04-28 09:58:00,
2013-04-28 06:03:00,35.8,30.5,30.29,WSW,248,0.0,0.0,81,0.00,CLR,,0.00,WeatherDisplay:10.37,2013-04-28 10:03:00,
2013-04-28 06:08:00,35.8,30.5,30.29,SSW,202,0.0,0.0,81,0.00,CLR,,0.00,WeatherDisplay:10.37,2013-04-28 10:08:00,
2013-04-28 06:13:00,36.1,30.9,30.29,South,180,0.0,0.2,81,0.00,CLR,,0.00,WeatherDisplay:10.37,2013-04-28 10:13:00,
2013-04-28 06:18:00,36.1,31.2,30.29,South,180,0.0,0.0,82,0.00,CLR,,0.00,WeatherDisplay:10.37,2013-04-28 10:18:00,
2013-04-28 06:23:00,36.3,31.4,30.29,South,180,0.0,0.0,82,0.00,CLR,,0.00,WeatherDisplay:10.37,2013-04-28 10:23:00,
2013-04-28 06:28:00,36.3,31.4,30.30,South,180,0.0,0.0,82,0.00,CLR,,0.00,WeatherDisplay:10.37,2013-04-28 10:28:00,
2013-04-28 06:33:00,36.3,31.4,30.30,South,180,0.0,0.0,82,0.00,CLR,,0.00,WeatherDisplay:10.37,2013-04-28 10:33:00,
2013-04-28 06:38:00,36.7,31.7,30.30,South,180,0.0,0.0,82,0.00,CLR,,0.00,WeatherDisplay:10.37,2013-04-28 10:38:00,
2013-04-28 06:43:00,36.9,31.9,30.30,South,180,0.0,0.0,82,0.00,CLR,,0.00,WeatherDisplay:10.37,2013-04-28 10:43:00,
2013-04-28 06:48:00,37.0,32.1,30.30,South,180,0.0,0.0,82,0.00,CLR,,0.00,WeatherDisplay:10.37,2013-04-28 10:48:00,
2013-04-28 06:53:00,37.4,32.4,30.30,South,180,0.0,0.0,82,0.00,CLR,,0.00,WeatherDisplay:10.37,2013-04-28 10:53:00,
2013-04-28 06:58:00,37.8,33.1,30.30,South,180,0.0,0.0,83,0.00,CLR,,0.00,WeatherDisplay:10.37,2013-04-28 10:58:00,
2013-04-28 07:03:00,38.3,33.6,30.30,South,180,0.0,0.0,83,0.00,CLR,,0.00,WeatherDisplay:10.37,2013-04-28 11:03:00,
2013-04-28 07:08:00,38.7,33.9,30.30,South,180,1.2,1.2,83,0.00,CLR,,0.00,WeatherDisplay:10.37,2013-04-28 11:08:00,
2013-04-28 07:13:00,39.2,34.5,30.30,SSW,202,1.2,1.2,83,0.00,CLR,,0.00,WeatherDisplay:10.37,2013-04-28 11:13:00,
2013-04-28 07:18:00,39.7,35.3,30.31,SSW,202,1.2,1.2,84,0.00,CLR,,0.00,WeatherDisplay:10.37,2013-04-28 11:18:00,
2013-04-28 07:23:00,40.6,36.2,30.31,SW,225,1.2,1.2,84,0.00,CLR,,0.00,WeatherDisplay:10.37,2013-04-28 11:23:00,
2013-04-28 07:28:00,41.7,37.8,30.31,SW,225,2.3,2.3,86,0.00,CLR,,0.00,WeatherDisplay:10.37,2013-04-28 11:28:00,
2013-04-28 07:33:00,42.8,38.6,30.31,SSW,202,1.2,1.2,85,0.00,CLR,,0.00,WeatherDisplay:10.37,2013-04-28 11:33:00,
2013-04-28 07:38:00,43.5,39.6,30.31,SW,225,1.2,1.2,86,0.00,CLR,,0.00,WeatherDisplay:10.37,2013-04-28 11:38:00,
2013-04-28 07:43:00,44.2,40.6,30.31,SW,225,1.2,1.2,87,0.00,CLR,,0.00,WeatherDisplay:10.37,2013-04-28 11:43:00,
2013-04-28 07:48:00,45.0,41.3,30.31,SSW,202,1.2,1.2,87,0.00,CLR,,0.00,WeatherDisplay:10.37,2013-04-28 11:48:00,
2013-04-28 07:53:00,45.9,42.2,30.31,SSW,202,1.2,1.2,87,0.00,CLR,,0.00,WeatherDisplay:10.37,2013-04-28 11:53:00,
2013-04-28 07:58:00,46.8,42.8,30.31,South,180,2.3,2.3,86,0.00,CLR,,0.00,WeatherDisplay:10.37,2013-04-28 11:58:00,
2013-04-28 08:03:00,47.8,43.9,30.31,West,270,2.3,2.3,86,0.00,CLR,,0.00,WeatherDisplay:10.37,2013-04-28 12:03:00,
2013-04-28 08:08:00,48.7,44.1,30.31,WSW,248,3.5,3.5,84,0.00,CLR,,0.00,WeatherDisplay:10.37,2013-04-28 12:08:00,
2013-04-28 08:13:00,49.6,44.7,30.31,SSW,202,2.3,2.3,83,0.00,CLR,,0.00,WeatherDisplay:10.37,2013-04-28 12:13:00,
2013-04-28 08:18:00,50.7,45.1,30.31,South,180,1.2,1.2,81,0.00,CLR,,0.00,WeatherDisplay:10.37,2013-04-28 12:18:00,
2013-04-28 08:23:00,51.8,45.8,30.32,SW,225,2.3,2.4,80,0.00,CLR,,0.00,WeatherDisplay:10.37,2013-04-28 12:23:00,
2013-04-28 08:28:00,52.9,46.5,30.32,SSW,202,1.2,1.2,79,0.00,CLR,,0.00,WeatherDisplay:10.37,2013-04-28 12:28:00,
2013-04-28 08:33:00,54.1,47.1,30.32,WSW,248,2.3,2.3,77,0.00,CLR,,0.00,WeatherDisplay:10.37,2013-04-28 12:33:00,
2013-04-28 08:38:00,55.0,47.3,30.32,South,180,2.3,2.6,75,0.00,CLR,,0.00,WeatherDisplay:10.37,2013-04-28 12:38:00,
2013-04-28 08:43:00,55.9,47.4,30.32,South,180,2.3,2.3,73,0.00,CLR,,0.00,WeatherDisplay:10.37,2013-04-28 12:43:00,
2013-04-28 08:48:00,56.7,48.1,30.32,WSW,248,1.2,1.2,73,0.00,CLR,,0.00,WeatherDisplay:10.37,2013-04-28 12:48:00,
2013-04-28 08:53:00,57.7,48.8,30.32,WNW,292,2.3,2.3,72,0.00,CLR,,0.00,WeatherDisplay:10.37,2013-04-28 12:53:00,
2013-04-28 08:58:00,58.8,49.1,30.32,SW,225,2.3,2.3,70,0.00,CLR,,0.00,WeatherDisplay:10.37,2013-04-28 12:58:00,
2013-04-28 09:03:00,59.5,49.4,30.32,SW,225,1.2,1.6,69,0.00,CLR,,0.00,WeatherDisplay:10.37,2013-04-28 13:03:00,
2013-04-28 09:08:00,60.4,49.0,30.32,SSE,158,1.2,1.4,66,0.00,CLR,,0.00,WeatherDisplay:10.37,2013-04-28 13:08:00,
2013-04-28 09:13:00,61.3,49.9,30.32,West,270,2.3,2.4,66,0.00,CLR,,0.00,WeatherDisplay:10.37,2013-04-28 13:13:00,
2013-04-28 09:18:00,62.2,50.3,30.33,NNW,338,1.2,1.2,65,0.00,CLR,,0.00,WeatherDisplay:10.37,2013-04-28 13:18:00,
2013-04-28 09:23:00,63.3,49.6,30.33,SSE,158,2.3,2.3,61,0.00,CLR,,0.00,WeatherDisplay:10.37,2013-04-28 13:23:00,
2013-04-28 09:28:00,63.9,49.7,30.33,WSW,248,2.3,2.4,60,0.00,CLR,,0.00,WeatherDisplay:10.37,2013-04-28 13:28:00,
2013-04-28 09:33:00,64.4,50.2,30.33,SSW,202,2.3,2.3,60,0.00,CLR,,0.00,WeatherDisplay:10.37,2013-04-28 13:33:00,
2013-04-28 09:38:00,64.8,49.2,30.33,South,180,2.3,2.9,57,0.00,CLR,,0.00,WeatherDisplay:10.37,2013-04-28 13:38:00,
2013-04-28 09:43:00,65.1,48.5,30.33,SE,135,3.5,3.5,55,0.00,CLR,,0.00,WeatherDisplay:10.37,2013-04-28 13:43:00,
2013-04-28 09:48:00,65.1,47.6,30.33,South,180,2.3,2.3,53,0.00,CLR,,0.00,WeatherDisplay:10.37,2013-04-28 13:48:00,
2013-04-28 09:53:00,65.1,44.9,30.33,SSW,202,3.5,3.5,48,0.00,CLR,,0.00,WeatherDisplay:10.37,2013-04-28 13:53:00,
2013-04-28 09:58:00,65.8,45.6,30.34,South,180,2.4,2.4,48,0.00,CLR,,0.00,WeatherDisplay:10.37,2013-04-28 13:58:00,
2013-04-28 10:03:00,66.0,46.3,30.33,SSW,202,4.6,4.6,49,0.00,CLR,,0.00,WeatherDisplay:10.37,2013-04-28 14:03:00,
2013-04-28 10:08:00,66.6,45.7,30.34,South,180,2.3,2.4,47,0.00,CLR,,0.00,WeatherDisplay:10.37,2013-04-28 14:08:00,
2013-04-28 10:13:00,66.7,44.1,30.34,South,180,2.3,2.9,44,0.00,CLR,,0.00,WeatherDisplay:10.37,2013-04-28 14:13:00,
2013-04-28 10:19:00,67.3,46.9,30.34,South,180,1.2,1.6,48,0.00,CLR,,0.00,WeatherDisplay:10.37,2013-04-28 14:19:00,
2013-04-28 10:24:00,67.6,44.3,30.34,SSE,158,4.6,4.6,43,0.00,CLR,,0.00,WeatherDisplay:10.37,2013-04-28 14:24:00,
2013-04-28 10:29:00,67.6,44.3,30.34,SE,135,4.6,4.6,43,0.00,CLR,,0.00,WeatherDisplay:10.37,2013-04-28 14:29:00,
2013-04-28 10:34:00,66.9,43.7,30.34,SSW,202,4.6,4.6,43,0.00,CLR,,0.00,WeatherDisplay:10.37,2013-04-28 14:34:00,
2013-04-28 10:39:00,66.6,43.4,30.34,SSW,202,4.6,4.6,43,0.00,CLR,,0.00,WeatherDisplay:10.37,2013-04-28 14:39:00,
2013-04-28 10:44:00,67.1,45.0,30.34,SSE,158,4.6,4.6,45,0.00,CLR,,0.00,WeatherDisplay:10.37,2013-04-28 14:44:00,
2013-04-28 10:49:00,67.3,44.6,30.34,SE,135,3.5,4.5,44,0.00,CLR,,0.00,WeatherDisplay:10.37,2013-04-28 14:49:00,
2013-04-28 10:54:00,66.9,44.3,30.34,SSW,202,4.6,4.6,44,0.00,CLR,,0.00,WeatherDisplay:10.37,2013-04-28 14:54:00,
2013-04-28 10:59:00,66.9,44.3,30.34,SSW,202,3.5,3.5,44,0.00,CLR,,0.00,WeatherDisplay:10.37,2013-04-28 14:59:00,
2013-04-28 11:04:00,66.6,43.4,30.34,SSW,202,4.6,4.6,43,0.00,CLR,,0.00,WeatherDisplay:10.37,2013-04-28 15:04:00,
2013-04-28 11:09:00,66.7,44.7,30.34,South,180,4.6,4.6,45,0.00,CLR,,0.00,WeatherDisplay:10.37,2013-04-28 15:09:00,
2013-04-28 11:14:00,67.6,45.5,30.34,SSE,158,2.3,2.4,45,0.00,CLR,,0.00,WeatherDisplay:10.37,2013-04-28 15:14:00,
2013-04-28 11:19:00,67.3,44.6,30.33,South,180,4.6,4.7,44,0.00,CLR,,0.00,WeatherDisplay:10.37,2013-04-28 15:19:00,
2013-04-28 11:24:00,66.4,45.0,30.33,SSW,202,4.6,4.9,46,0.00,CLR,,0.00,WeatherDisplay:10.37,2013-04-28 15:24:00,
2013-04-28 11:29:00,66.0,44.1,30.33,SE,135,3.5,3.6,45,0.00,CLR,,0.00,WeatherDisplay:10.37,2013-04-28 15:29:00,
2013-04-28 11:34:00,65.8,45.0,30.33,SW,225,4.6,4.6,47,0.00,CLR,,0.00,WeatherDisplay:10.37,2013-04-28 15:34:00,
2013-04-28 11:39:00,65.8,44.5,30.33,SW,225,3.5,3.8,46,0.00,CLR,,0.00,WeatherDisplay:10.37,2013-04-28 15:39:00,
2013-04-28 11:44:00,66.2,45.4,30.33,WSW,248,3.5,3.5,47,0.00,CLR,,0.00,WeatherDisplay:10.37,2013-04-28 15:44:00,
2013-04-28 11:49:00,66.6,45.7,30.33,South,180,4.6,4.6,47,0.00,CLR,,0.00,WeatherDisplay:10.37,2013-04-28 15:49:00,
2013-04-28 11:54:00,66.4,45.5,30.33,SE,135,3.5,3.5,47,0.00,CLR,,0.00,WeatherDisplay:10.37,2013-04-28 15:54:00,
2013-04-28 11:59:00,66.2,45.4,30.33,SW,225,5.8,5.8,47,0.00,CLR,,0.00,WeatherDisplay:10.37,2013-04-28 15:59:00,
2013-04-28 12:04:00,66.2,45.4,30.33,SSE,158,4.6,4.6,47,0.00,CLR,,0.00,WeatherDisplay:10.37,2013-04-28 16:04:00,
2013-04-28 12:09:00,66.6,45.7,30.32,SSE,158,4.6,4.6,47,0.00,CLR,,0.00,WeatherDisplay:10.37,2013-04-28 16:09:00,
2013-04-28 12:14:00,67.1,46.7,30.32,South,180,2.3,2.6,48,0.00,CLR,,0.00,WeatherDisplay:10.37,2013-04-28 16:14:00,
2013-04-28 12:19:00,67.5,46.5,30.32,South,180,4.6,4.6,47,0.00,CLR,,0.00,WeatherDisplay:10.37,2013-04-28 16:19:00,
2013-04-28 12:24:00,67.1,45.6,30.32,SE,135,4.6,4.6,46,0.00,CLR,,0.00,WeatherDisplay:10.37,2013-04-28 16:24:00,
2013-04-28 12:29:00,65.8,45.0,30.32,South,180,4.6,5.2,47,0.00,CLR,,0.00,WeatherDisplay:10.37,2013-04-28 16:29:00,
2013-04-28 12:34:00,65.5,44.7,30.31,SSE,158,5.8,5.8,47,0.00,CLR,,0.00,WeatherDisplay:10.37,2013-04-28 16:34:00,
2013-04-28 12:39:00,65.1,44.9,30.31,SSW,202,5.8,5.8,48,0.00,CLR,,0.00,WeatherDisplay:10.37,2013-04-28 16:39:00,
2013-04-28 12:44:00,65.3,45.1,30.31,South,180,5.8,5.8,48,0.00,CLR,,0.00,WeatherDisplay:10.37,2013-04-28 16:44:00,
2013-04-28 12:49:00,65.3,45.6,30.31,South,180,5.8,5.8,49,0.00,CLR,,0.00,WeatherDisplay:10.37,2013-04-28 16:49:00,
2013-04-28 12:54:00,65.3,45.6,30.31,SE,135,3.5,3.6,49,0.00,CLR,,0.00,WeatherDisplay:10.37,2013-04-28 16:54:00,
2013-04-28 12:59:00,65.1,45.5,30.31,SSW,202,4.6,4.6,49,0.00,CLR,,0.00,WeatherDisplay:10.37,2013-04-28 16:59:00,
2013-04-28 13:04:00,65.1,45.5,30.31,SSW,202,4.6,4.6,49,0.00,CLR,,0.00,WeatherDisplay:10.37,2013-04-28 17:04:00,
2013-04-28 13:09:00,65.1,44.9,30.31,South,180,6.9,6.9,48,0.00,CLR,,0.00,WeatherDisplay:10.37,2013-04-28 17:09:00,
2013-04-28 13:14:00,64.9,45.3,30.31,SSE,158,4.6,4.6,49,0.00,CLR,,0.00,WeatherDisplay:10.37,2013-04-28 17:14:00,
2013-04-28 13:19:00,65.1,45.5,30.31,SW,225,4.6,4.6,49,0.00,CLR,,0.00,WeatherDisplay:10.37,2013-04-28 17:19:00,
2013-04-28 13:24:00,65.3,45.6,30.31,SSW,202,4.6,4.6,49,0.00,CLR,,0.00,WeatherDisplay:10.37,2013-04-28 17:24:00,
2013-04-28 13:29:00,65.1,45.5,30.31,South,180,4.6,4.6,49,0.00,CLR,,0.00,WeatherDisplay:10.37,2013-04-28 17:29:00,
2013-04-28 13:34:00,65.1,45.5,30.31,SSW,202,6.9,6.9,49,0.00,CLR,,0.00,WeatherDisplay:10.37,2013-04-28 17:34:00,
2013-04-28 13:39:00,64.9,45.8,30.31,South,180,4.6,4.6,50,0.00,CLR,,0.00,WeatherDisplay:10.37,2013-04-28 17:39:00,
2013-04-28 13:44:00,64.6,45.5,30.31,SSW,202,3.5,3.5,50,0.00,CLR,,0.00,WeatherDisplay:10.37,2013-04-28 17:44:00,
2013-04-28 13:49:00,64.6,43.3,30.31,SSE,158,5.8,5.8,46,0.00,CLR,,0.00,WeatherDisplay:10.37,2013-04-28 17:49:00,
2013-04-28 13:54:00,64.9,43.7,30.31,SSW,202,5.8,5.8,46,0.00,CLR,,0.00,WeatherDisplay:10.37,2013-04-28 17:54:00,
2013-04-28 13:59:00,65.7,43.1,30.31,South,180,4.6,5.2,44,0.00,CLR,,0.00,WeatherDisplay:10.37,2013-04-28 17:59:00,
2013-04-28 14:04:00,65.5,43.0,30.31,SSE,158,4.6,4.6,44,0.00,CLR,,0.00,WeatherDisplay:10.37,2013-04-28 18:04:00,
2013-04-28 14:09:00,65.3,42.8,30.31,SE,135,4.6,4.7,44,0.00,CLR,,0.00,WeatherDisplay:10.37,2013-04-28 18:09:00,
2013-04-28 14:14:00,65.1,42.7,30.31,SE,135,3.5,3.8,44,0.00,CLR,,0.00,WeatherDisplay:10.37,2013-04-28 18:14:00,
2013-04-28 14:19:00,65.1,42.1,30.30,SE,135,4.6,4.7,43,0.00,CLR,,0.00,WeatherDisplay:10.37,2013-04-28 18:19:00,
2013-04-28 14:24:00,65.1,42.1,30.30,SSE,158,5.8,5.8,43,0.00,CLR,,0.00,WeatherDisplay:10.37,2013-04-28 18:24:00,
2013-04-28 14:29:00,65.1,44.4,30.30,SSE,158,2.3,2.9,47,0.00,CLR,,0.00,WeatherDisplay:10.37,2013-04-28 18:29:00,
2013-04-28 14:34:00,65.1,44.9,30.30,South,180,3.5,3.5,48,0.00,CLR,,0.00,WeatherDisplay:10.37,2013-04-28 18:34:00,
2013-04-28 14:39:00,65.1,44.9,30.30,SSE,158,5.8,5.9,48,0.00,CLR,,0.00,WeatherDisplay:10.37,2013-04-28 18:39:00,
2013-04-28 14:44:00,65.1,45.5,30.29,South,180,4.6,5.2,49,0.00,CLR,,0.00,WeatherDisplay:10.37,2013-04-28 18:44:00,
2013-04-28 14:49:00,64.8,44.1,30.29,SSW,202,5.8,5.8,47,0.00,CLR,,0.00,WeatherDisplay:10.37,2013-04-28 18:49:00,
2013-04-28 14:54:00,64.2,43.6,30.29,SSE,158,4.6,4.6,47,0.00,CLR,,0.00,WeatherDisplay:10.37,2013-04-28 18:54:00,
2013-04-28 14:59:00,63.9,43.2,30.29,SSW,202,4.6,4.6,47,0.00,CLR,,0.00,WeatherDisplay:10.37,2013-04-28 18:59:00,
2013-04-28 15:04:00,63.9,42.7,30.29,South,180,5.8,5.8,46,0.00,CLR,,0.00,WeatherDisplay:10.37,2013-04-28 19:04:00,
2013-04-28 15:09:00,64.0,43.4,30.29,SSE,158,4.6,4.6,47,0.00,CLR,,0.00,WeatherDisplay:10.37,2013-04-28 19:09:00,
2013-04-28 15:14:00,64.0,43.4,30.29,South,180,4.6,4.6,47,0.00,CLR,,0.00,WeatherDisplay:10.37,2013-04-28 19:14:00,
2013-04-28 15:19:00,63.9,43.2,30.28,SSW,202,4.6,4.6,47,0.00,CLR,,0.00,WeatherDisplay:10.37,2013-04-28 19:19:00,
2013-04-28 15:24:00,63.3,42.7,30.29,SSW,202,4.6,4.6,47,0.00,CLR,,0.00,WeatherDisplay:10.37,2013-04-28 19:24:00,
2013-04-28 15:29:00,63.0,43.5,30.29,SW,225,2.3,2.3,49,0.00,CLR,,0.00,WeatherDisplay:10.37,2013-04-28 19:29:00,
2013-04-28 15:34:00,63.3,42.7,30.29,South,180,4.6,4.6,47,0.00,CLR,,0.00,WeatherDisplay:10.37,2013-04-28 19:34:00,
2013-04-28 15:39:00,63.1,43.1,30.28,SSW,202,4.6,4.6,48,0.00,CLR,,0.00,WeatherDisplay:10.37,2013-04-28 19:39:00,
2013-04-28 15:44:00,63.0,43.0,30.28,SSW,202,4.0,4.0,48,0.00,CLR,,0.00,WeatherDisplay:10.37,2013-04-28 19:44:00,
2013-04-28 15:49:00,62.6,42.1,30.28,SSW,202,4.6,4.6,47,0.00,CLR,,0.00,WeatherDisplay:10.37,2013-04-28 19:49:00,
2013-04-28 15:54:00,62.4,42.5,30.28,SE,135,4.7,4.7,48,0.00,CLR,,0.00,WeatherDisplay:10.37,2013-04-28 19:54:00,
2013-04-28 15:59:00,61.9,42.0,30.28,South,180,5.4,5.4,48,0.00,CLR,,0.00,WeatherDisplay:10.37,2013-04-28 19:59:00,
2013-04-28 16:04:00,61.5,43.2,30.28,SE,135,4.6,4.6,51,0.00,CLR,,0.00,WeatherDisplay:10.37,2013-04-28 20:04:00,
2013-04-28 16:09:00,61.2,43.4,30.28,SSE,158,3.5,3.5,52,0.00,CLR,,0.00,WeatherDisplay:10.37,2013-04-28 20:09:00,
2013-04-28 16:14:00,61.2,43.4,30.28,SE,135,4.9,4.9,52,0.00,CLR,,0.00,WeatherDisplay:10.37,2013-04-28 20:14:00,
2013-04-28 16:20:00,61.0,43.2,30.28,SSE,158,4.6,4.6,52,0.00,CLR,,0.00,WeatherDisplay:10.37,2013-04-28 20:20:00,
2013-04-28 16:25:00,60.8,43.6,30.28,SE,135,4.6,4.6,53,0.00,CLR,,0.00,WeatherDisplay:10.37,2013-04-28 20:25:00,
2013-04-28 16:30:00,60.8,43.6,30.26,SSW,202,3.5,4.0,53,0.00,CLR,,0.00,WeatherDisplay:10.37,2013-04-28 20:30:00,
2013-04-28 16:35:00,60.6,43.4,30.26,SSE,158,5.8,5.8,53,0.00,CLR,,0.00,WeatherDisplay:10.37,2013-04-28 20:35:00,
2013-04-28 16:40:00,60.6,43.9,30.26,SSE,158,2.3,3.6,54,0.00,CLR,,0.00,WeatherDisplay:10.37,2013-04-28 20:40:00,
2013-04-28 16:45:00,60.4,44.2,30.26,SSW,202,3.5,3.5,55,0.00,CLR,,0.00,WeatherDisplay:10.37,2013-04-28 20:45:00,
2013-04-28 16:50:00,60.1,44.3,30.26,South,180,3.5,3.6,56,0.00,CLR,,0.00,WeatherDisplay:10.37,2013-04-28 20:50:00,
2013-04-28 16:55:00,60.1,44.3,30.26,South,180,4.6,5.2,56,0.00,CLR,,0.00,WeatherDisplay:10.37,2013-04-28 20:55:00,
2013-04-28 17:00:00,59.7,44.0,30.26,SSE,158,4.6,4.6,56,0.00,CLR,,0.00,WeatherDisplay:10.37,2013-04-28 21:00:00,
2013-04-28 17:05:00,59.4,43.7,30.26,SSE,158,4.6,4.6,56,0.00,CLR,,0.00,WeatherDisplay:10.37,2013-04-28 21:05:00,
2013-04-28 17:10:00,59.2,43.5,30.28,South,180,4.6,5.4,56,0.00,CLR,,0.00,WeatherDisplay:10.37,2013-04-28 21:10:00,
2013-04-28 17:15:00,58.8,43.6,30.26,SSW,202,2.3,3.3,57,0.00,CLR,,0.00,WeatherDisplay:10.37,2013-04-28 21:15:00,
2013-04-28 17:20:00,58.8,43.6,30.27,SSW,199,3.0,6.0,57,0.00,CLR,,0.00,WeatherDisplay:10.37,2013-04-28 21:20:00,
2013-04-28 17:25:00,58.5,43.7,30.26,SSW,202,5.8,5.8,58,0.00,CLR,,0.00,WeatherDisplay:10.37,2013-04-28 21:25:00,
2013-04-28 17:30:00,57.9,43.2,30.26,SW,219,2.0,6.0,58,0.00,CLR,,0.00,WeatherDisplay:10.37,2013-04-28 21:30:00,
2013-04-28 17:35:00,57.7,43.1,30.26,SW,225,1.2,1.4,58,0.00,CLR,,0.00,WeatherDisplay:10.37,2013-04-28 21:35:00,
2013-04-28 17:40:00,57.6,43.3,30.26,SSW,202,3.5,3.5,59,0.00,CLR,,0.00,WeatherDisplay:10.37,2013-04-28 21:40:00,
2013-04-28 17:45:00,57.4,43.2,30.26,SSW,202,4.6,4.6,59,0.00,CLR,,0.00,WeatherDisplay:10.37,2013-04-28 21:45:00,
2013-04-28 17:50:00,57.2,43.4,30.26,South,181,3.0,6.0,60,0.00,CLR,,0.00,WeatherDisplay:10.37,2013-04-28 21:50:00,
2013-04-28 17:55:00,56.7,42.9,30.26,SE,135,4.6,4.7,60,0.00,CLR,,0.00,WeatherDisplay:10.37,2013-04-28 21:55:00,
2013-04-28 18:00:00,56.4,43.1,30.26,South,175,2.0,5.0,61,0.00,CLR,,0.00,WeatherDisplay:10.37,2013-04-28 22:00:00,
2013-04-28 18:05:00,56.3,43.0,30.26,SSW,202,2.3,3.3,61,0.00,CLR,,0.00,WeatherDisplay:10.37,2013-04-28 22:05:00,
2013-04-28 18:10:00,56.1,43.3,30.26,South,187,3.0,5.0,62,0.00,CLR,,0.00,WeatherDisplay:10.37,2013-04-28 22:10:00,
2013-04-28 18:15:00,55.8,42.9,30.26,SSE,158,3.5,3.5,62,0.00,CLR,,0.00,WeatherDisplay:10.37,2013-04-28 22:15:00,
2013-04-28 18:20:00,55.8,42.9,30.26,South,177,3.0,5.0,62,0.00,CLR,,0.00,WeatherDisplay:10.37,2013-04-28 22:20:00,
2013-04-28 18:25:00,55.6,43.2,30.26,SW,225,4.6,4.6,63,0.00,CLR,,0.00,WeatherDisplay:10.37,2013-04-28 22:25:00,
2013-04-28 18:30:00,55.4,43.4,30.26,SSW,193,1.0,5.0,64,0.00,CLR,,0.00,WeatherDisplay:10.37,2013-04-28 22:30:00,
2013-04-28 18:35:00,55.4,43.4,30.26,WSW,248,2.3,3.3,64,0.00,CLR,,0.00,WeatherDisplay:10.37,2013-04-28 22:35:00,
2013-04-28 18:40:00,55.0,43.1,30.26,SSW,200,2.0,3.0,64,0.00,CLR,,0.00,WeatherDisplay:10.37,2013-04-28 22:40:00,
2013-04-28 18:45:00,54.9,43.3,30.26,South,180,2.3,3.3,65,0.00,CLR,,0.00,WeatherDisplay:10.37,2013-04-28 22:45:00,
2013-04-28 18:50:00,54.7,43.5,30.26,SSW,202,2.3,2.3,66,0.00,CLR,,0.00,WeatherDisplay:10.37,2013-04-28 22:50:00,
2013-04-28 18:55:00,54.3,43.2,30.26,SW,225,2.3,2.3,66,0.00,CLR,,0.00,WeatherDisplay:10.37,2013-04-28 22:55:00,
2013-04-28 19:00:00,54.0,43.6,30.26,SSW,202,4.6,4.6,68,0.00,CLR,,0.00,WeatherDisplay:10.37,2013-04-28 23:00:00,
2013-04-28 19:05:00,53.4,43.5,30.26,SSW,202,2.3,2.4,69,0.00,CLR,,0.00,WeatherDisplay:10.37,2013-04-28 23:05:00,
2013-04-28 19:10:00,53.2,43.3,30.26,SSW,202,2.3,2.6,69,0.00,CLR,,0.00,WeatherDisplay:10.37,2013-04-28 23:10:00,
2013-04-28 19:15:00,52.9,43.4,30.26,South,180,2.3,2.3,70,0.00,CLR,,0.00,WeatherDisplay:10.37,2013-04-28 23:15:00,
2013-04-28 19:20:00,52.7,43.6,30.26,WSW,248,2.3,2.3,71,0.00,CLR,,0.00,WeatherDisplay:10.37,2013-04-28 23:20:00,
2013-04-28 19:25:00,52.3,43.2,30.26,SSW,202,3.5,3.5,71,0.00,CLR,,0.00,WeatherDisplay:10.37,2013-04-28 23:25:00,
2013-04-28 19:30:00,52.2,43.0,30.26,SW,225,1.2,1.4,71,0.00,CLR,,0.00,WeatherDisplay:10.37,2013-04-28 23:30:00,
2013-04-28 19:35:00,51.8,42.7,30.28,SW,225,2.3,2.3,71,0.00,CLR,,0.00,WeatherDisplay:10.37,2013-04-28 23:35:00,
2013-04-28 19:40:00,51.6,42.5,30.28,SSW,202,3.5,3.5,71,0.00,CLR,,0.00,WeatherDisplay:10.37,2013-04-28 23:40:00,
2013-04-28 19:45:00,51.4,42.3,30.26,SSW,202,2.3,2.3,71,0.00,CLR,,0.00,WeatherDisplay:10.37,2013-04-28 23:45:00,
2013-04-28 19:50:00,51.3,42.2,30.26,SSW,202,2.3,2.3,71,0.00,CLR,,0.00,WeatherDisplay:10.37,2013-04-28 23:50:00,
2013-04-28 19:55:00,51.3,42.5,30.26,SSW,202,1.2,1.4,72,0.00,CLR,,0.00,WeatherDisplay:10.37,2013-04-28 23:55:00,
2013-04-28 20:00:00,51.3,42.5,30.26,SW,225,1.2,1.2,72,0.00,CLR,,0.00,WeatherDisplay:10.37,2013-04-29 00:00:00,
2013-04-28 20:05:00,51.1,42.4,30.26,SSW,202,1.2,1.2,72,0.00,CLR,,0.00,WeatherDisplay:10.37,2013-04-29 00:05:00,
2013-04-28 20:10:00,50.9,42.2,30.26,SSW,202,1.2,1.2,72,0.00,CLR,,0.00,WeatherDisplay:10.37,2013-04-29 00:10:00,
2013-04-28 20:15:00,50.7,42.0,30.26,SSW,202,1.2,1.4,72,0.00,CLR,,0.00,WeatherDisplay:10.37,2013-04-29 00:15:00,
2013-04-28 20:20:00,50.5,41.8,30.26,SW,225,1.2,1.2,72,0.00,CLR,,0.00,WeatherDisplay:10.37,2013-04-29 00:20:00,
2013-04-28 20:25:00,50.2,41.9,30.26,SW,225,1.2,1.6,73,0.00,CLR,,0.00,WeatherDisplay:10.37,2013-04-29 00:25:00,
2013-04-28 20:30:00,50.2,41.9,30.26,SSW,202,1.2,1.4,73,0.00,CLR,,0.00,WeatherDisplay:10.37,2013-04-29 00:30:00,
2013-04-28 20:35:00,50.0,42.0,30.26,SSW,202,2.3,2.3,74,0.00,CLR,,0.00,WeatherDisplay:10.37,2013-04-29 00:35:00,
2013-04-28 20:40:00,50.0,42.4,30.26,SW,225,1.2,1.2,75,0.00,CLR,,0.00,WeatherDisplay:10.37,2013-04-29 00:40:00,
2013-04-28 20:45:00,50.0,42.4,30.26,SSW,202,2.3,2.3,75,0.00,CLR,,0.00,WeatherDisplay:10.37,2013-04-29 00:45:00,
2013-04-28 20:50:00,50.0,42.4,30.26,SW,225,2.3,2.3,75,0.00,CLR,,0.00,WeatherDisplay:10.37,2013-04-29 00:50:00,
2013-04-28 20:55:00,49.8,42.2,30.26,SSW,202,1.2,1.2,75,0.00,CLR,,0.00,WeatherDisplay:10.37,2013-04-29 00:55:00,
2013-04-28 21:00:00,49.6,42.4,30.26,SSW,202,1.2,1.2,76,0.00,CLR,,0.00,WeatherDisplay:10.37,2013-04-29 01:00:00,
2013-04-28 21:05:00,49.5,42.2,30.26,SSW,202,1.2,1.2,76,0.00,CLR,,0.00,WeatherDisplay:10.37,2013-04-29 01:05:00,
2013-04-28 21:10:00,49.5,42.2,30.26,SSW,202,1.2,1.2,76,0.00,CLR,,0.00,WeatherDisplay:10.37,2013-04-29 01:10:00,
2013-04-28 21:15:00,49.6,42.7,30.26,South,180,2.3,2.3,77,0.00,CLR,,0.00,WeatherDisplay:10.37,2013-04-29 01:15:00,
2013-04-28 21:20:00,49.5,42.5,30.26,South,180,1.2,1.4,77,0.00,CLR,,0.00,WeatherDisplay:10.37,2013-04-29 01:20:00,
2013-04-28 21:25:00,49.3,42.4,30.26,South,180,1.2,1.2,77,0.00,CLR,,0.00,WeatherDisplay:10.37,2013-04-29 01:25:00,
2013-04-28 21:30:00,49.3,42.4,30.26,South,180,1.2,1.2,77,0.00,CLR,,0.00,WeatherDisplay:10.37,2013-04-29 01:30:00,
2013-04-28 21:35:00,48.9,42.0,30.26,South,180,1.2,1.2,77,0.00,CLR,,0.00,WeatherDisplay:10.37,2013-04-29 01:35:00,
2013-04-28 21:40:00,48.9,42.0,30.26,SSW,202,1.2,1.2,77,0.00,CLR,,0.00,WeatherDisplay:10.37,2013-04-29 01:40:00,
2013-04-28 21:45:00,48.7,41.8,30.26,SSW,202,1.2,1.2,77,0.00,CLR,,0.00,WeatherDisplay:10.37,2013-04-29 01:45:00,
2013-04-28 21:50:00,48.6,41.7,30.26,SSW,202,1.2,1.2,77,0.00,CLR,,0.00,WeatherDisplay:10.37,2013-04-29 01:50:00,
2013-04-28 21:55:00,48.6,42.0,30.26,SSW,202,0.0,0.0,78,0.00,CLR,,0.00,WeatherDisplay:10.37,2013-04-29 01:55:00,
2013-04-28 22:00:00,48.2,41.7,30.26,SSW,202,0.0,0.0,78,0.00,CLR,,0.00,WeatherDisplay:10.37,2013-04-29 02:00:00,
2013-04-28 22:05:00,48.0,41.5,30.26,SSW,202,0.0,0.0,78,0.00,CLR,,0.00,WeatherDisplay:10.37,2013-04-29 02:05:00,
2013-04-28 22:10:00,47.8,41.3,30.26,SSW,202,1.2,1.2,78,0.00,CLR,,0.00,WeatherDisplay:10.37,2013-04-29 02:10:00,
2013-04-28 22:15:00,47.7,41.1,30.26,SSW,202,0.0,0.0,78,0.00,CLR,,0.00,WeatherDisplay:10.37,2013-04-29 02:15:00,
2013-04-28 22:20:00,47.5,41.0,30.26,SSW,202,0.0,0.0,78,0.00,CLR,,0.00,WeatherDisplay:10.37,2013-04-29 02:20:00,
2013-04-28 22:25:00,47.3,40.8,30.26,SSW,202,0.0,0.0,78,0.00,CLR,,0.00,WeatherDisplay:10.37,2013-04-29 02:25:00,
2013-04-28 22:30:00,47.1,40.6,30.26,SSW,202,1.2,1.2,78,0.00,CLR,,0.00,WeatherDisplay:10.37,2013-04-29 02:30:00,
2013-04-28 22:35:00,46.9,40.1,30.26,SSW,202,0.0,0.0,77,0.00,CLR,,0.00,WeatherDisplay:10.37,2013-04-29 02:35:00,
2013-04-28 22:40:00,46.8,40.3,30.26,SSW,202,1.2,1.2,78,0.00,CLR,,0.00,WeatherDisplay:10.37,2013-04-29 02:40:00,
2013-04-28 22:45:00,46.4,39.9,30.26,SSW,202,0.0,0.0,78,0.00,CLR,,0.00,WeatherDisplay:10.37,2013-04-29 02:45:00,
2013-04-28 22:50:00,46.4,39.9,30.26,SSW,202,0.0,0.2,78,0.00,CLR,,0.00,WeatherDisplay:10.37,2013-04-29 02:50:00,
2013-04-28 22:55:00,46.0,39.6,30.26,SSW,202,0.0,0.0,78,0.00,CLR,,0.00,WeatherDisplay:10.37,2013-04-29 02:55:00,
2013-04-28 23:00:00,46.0,39.6,30.26,SSW,202,0.5,0.5,78,0.00,CLR,,0.00,WeatherDisplay:10.37,2013-04-29 03:00:00,
2013-04-28 23:05:00,45.9,39.7,30.26,SSW,202,1.2,1.2,79,0.00,CLR,,0.00,WeatherDisplay:10.37,2013-04-29 03:05:00,
2013-04-28 23:10:00,45.7,39.5,30.26,SSW,202,1.2,0.0,79,0.00,CLR,,0.00,WeatherDisplay:10.37,2013-04-29 03:10:00,
2013-04-28 23:16:00,45.5,39.4,30.26,SSW,202,0.0,0.0,79,0.00,CLR,,0.00,WeatherDisplay:10.37,2013-04-29 03:16:00,
2013-04-28 23:21:00,45.5,39.4,30.26,SSW,202,0.0,0.0,79,0.00,CLR,,0.00,WeatherDisplay:10.37,2013-04-29 03:21:00,
2013-04-28 23:26:00,45.3,39.2,30.26,SSW,202,0.0,0.0,79,0.00,CLR,,0.00,WeatherDisplay:10.37,2013-04-29 03:26:00,
2013-04-28 23:31:00,45.3,39.2,30.26,SSW,202,0.0,0.0,79,0.00,CLR,,0.00,WeatherDisplay:10.37,2013-04-29 03:31:00,
2013-04-28 23:36:00,45.1,39.0,30.26,SSW,202,0.0,0.9,79,0.00,CLR,,0.00,WeatherDisplay:10.37,2013-04-29 03:36:00,
2013-04-28 23:41:00,45.0,39.2,30.26,SSW,202,1.2,0.0,80,0.00,CLR,,0.00,WeatherDisplay:10.37,2013-04-29 03:41:00,
2013-04-28 23:46:00,45.0,39.2,30.26,SSW,202,0.0,0.0,80,0.00,CLR,,0.00,WeatherDisplay:10.37,2013-04-29 03:46:00,
2013-04-28 23:51:00,45.0,39.2,30.26,SSW,202,0.0,0.0,80,0.00,CLR,,0.00,WeatherDisplay:10.37,2013-04-29 03:51:00,
2013-04-28 23:56:00,44.8,39.0,30.26,SSW,202,0.0,0.0,80,0.00,CLR,,0.00,WeatherDisplay:10.37,2013-04-29 03:56:00,